Time;durP1;ratioP1;P1;durP2;ratioP2;P2;SDS_P1;SDS_P2;PMS_P1;PMS_P2;Temp;Humidity;BMP_temperature;BMP_pressure;BME280_temperature;BME280_humidity;BME280_pressure;Samples;Min_cycle;Max_cycle;Signal;HPM_P1;HPM_P2
2023/03/10 00:01:14;;;;;;;;;;;7.50;95.30;;;;;;6190926;23;20025;-80
2023/03/10 00:03:41;;;;;;;13.18;4.82;;;7.60;95.40;;;;;;6189600;23;19924;-80
2023/03/10 00:06:12;;;;;;;10.70;4.65;;;7.50;95.60;;;;;;6165881;23;20025;-80
2023/03/10 00:08:39;;;;;;;14.02;4.78;;;7.50;95.60;;;;;;6164752;23;20017;-80
2023/03/10 00:11:07;;;;;;;17.15;6.53;;;6.90;95.60;;;;;;6190249;23;20392;-80
2023/03/10 00:13:35;;;;;;;16.58;5.30;;;7.40;95.90;;;;;;6189368;23;20024;-80
2023/03/10 00:16:03;;;;;;;19.95;7.30;;;7.30;96.00;;;;;;6164977;23;20045;-80
2023/03/10 00:18:31;;;;;;;21.60;6.53;;;7.30;96.20;;;;;;6188441;23;20083;-80
2023/03/10 00:20:58;;;;;;;18.63;7.72;;;7.30;96.20;;;;;;6165310;23;20340;-80
2023/03/10 00:23:26;;;;;;;25.00;9.05;;;7.20;96.40;;;;;;6165522;23;20016;-80
2023/03/10 00:25:59;;;;;;;27.10;10.25;;;7.10;96.40;;;;;;6165673;23;20020;-80
2023/03/10 00:28:27;;;;;;;21.70;9.13;;;7.20;96.40;;;;;;6165679;23;20704;-80
2023/03/10 00:31:00;;;;;;;19.23;6.97;;;7.40;96.60;;;;;;6165367;23;20697;-80
2023/03/10 00:33:29;;;;;;;;;;;7.10;96.50;;;;;;6166640;23;20025;-80
2023/03/10 00:36:08;;;;;;;18.88;6.30;;;7.10;96.60;;;;;;6166250;23;19938;-80
2023/03/10 00:38:36;;;;;;;14.57;6.07;;;7.00;96.50;;;;;;6165899;23;20029;-80
2023/03/10 00:41:09;;;;;;;11.68;4.57;;;7.00;96.60;;;;;;6189712;23;20020;-80
2023/03/10 00:43:37;;;;;;;14.50;5.32;;;7.00;96.70;;;;;;6165579;23;20017;-80
2023/03/10 00:46:05;;;;;;;11.45;4.70;;;7.00;96.90;;;;;;6165902;23;20107;-80
2023/03/10 00:48:33;;;;;;;11.75;4.72;;;6.90;97.00;;;;;;6168047;23;20075;-80
2023/03/10 00:51:01;;;;;;;12.70;5.30;;;6.90;96.70;;;;;;6166759;23;20076;-80
2023/03/10 00:53:28;;;;;;;12.27;5.25;;;6.90;96.90;;;;;;6167472;23;20107;-80
2023/03/10 00:55:59;;;;;;;12.98;5.68;;;6.90;97.00;;;;;;6165742;23;20020;-80
2023/03/10 00:58:27;;;;;;;10.68;4.70;;;6.80;96.90;;;;;;6190379;23;20031;-80
2023/03/10 01:00:55;;;;;;;12.43;4.28;;;7.00;97.10;;;;;;6166103;23;20029;-80
2023/03/10 01:03:23;;;;;;;12.50;5.22;;;6.70;97.20;;;;;;6164519;23;20083;-80
2023/03/10 01:05:51;;;;;;;12.40;3.92;;;7.40;97.50;;;;;;6164513;23;20099;-80
2023/03/10 01:08:19;;;;;;;10.15;5.07;;;7.00;97.70;;;;;;6165330;23;20020;-80
2023/03/10 01:10:47;;;;;;;10.48;4.72;;;6.60;97.30;;;;;;6165466;23;20016;-80
2023/03/10 01:13:17;;;;;;;12.02;4.55;;;7.50;97.70;;;;;;6164906;23;20511;-80
2023/03/10 01:15:47;;;;;;;8.98;4.35;;;7.40;97.70;;;;;;6164687;23;20017;-80
2023/03/10 01:18:15;;;;;;;10.40;4.40;;;5.60;97.30;;;;;;6165265;23;20020;-80
2023/03/10 01:20:43;;;;;;;13.90;5.00;;;6.50;97.70;;;;;;6189195;23;20025;-80
2023/03/10 01:23:20;;;;;;;10.80;4.18;;;6.50;98.00;;;;;;6164773;23;20020;-80
2023/03/10 01:25:49;;;;;;;11.60;3.90;;;6.50;98.20;;;;;;6189304;23;20020;-80
2023/03/10 01:28:17;;;;;;;9.88;4.10;;;6.80;98.10;;;;;;6164838;23;20024;-80
2023/03/10 01:30:45;;;;;;;10.05;4.13;;;5.80;98.10;;;;;;6163970;23;20021;-80
2023/03/10 01:33:13;;;;;;;13.70;4.80;;;6.50;98.30;;;;;;6164860;23;20027;-80
2023/03/10 01:35:41;;;;;;;14.85;4.80;;;6.40;98.20;;;;;;6164189;23;20020;-80
2023/03/10 01:38:11;;;;;;;13.30;4.97;;;6.30;98.10;;;;;;6165435;23;20584;-80
2023/03/10 01:40:39;;;;;;;12.90;4.85;;;6.30;98.60;;;;;;6165103;23;20080;-80
2023/03/10 01:43:19;;;;;;;11.13;4.35;;;6.30;98.60;;;;;;6167747;23;20088;-80
2023/03/10 01:45:46;;;;;;;14.27;5.25;;;6.30;98.60;;;;;;6164437;23;20527;-80
2023/03/10 01:48:17;;;;;;;14.82;5.38;;;6.20;98.60;;;;;;6165300;23;20103;-80
2023/03/10 01:50:47;;;;;;;14.35;5.30;;;6.30;98.60;;;;;;6187537;23;20017;-80
2023/03/10 01:53:18;;;;;;;11.90;5.30;;;6.20;98.60;;;;;;6164846;23;20028;-80
2023/03/10 01:55:51;;;;;;;14.65;5.85;;;6.20;98.70;;;;;;6189294;23;20048;-80
2023/03/10 01:58:21;;;;;;;15.77;6.40;;;6.20;98.90;;;;;;6163898;23;20743;-80
2023/03/10 02:00:51;;;;;;;13.65;5.40;;;6.20;98.90;;;;;;6166372;23;20380;-80
2023/03/10 02:03:25;;;;;;;15.27;5.35;;;6.20;98.80;;;;;;6190003;23;20071;-80
2023/03/10 02:05:57;;;;;;;16.48;5.85;;;6.20;98.80;;;;;;6164006;23;20102;-80
2023/03/10 02:08:28;;;;;;;18.40;5.90;;;6.10;98.90;;;;;;6166916;23;20047;-80
2023/03/10 02:10:56;;;;;;;16.23;5.65;;;6.10;98.90;;;;;;6165694;23;20731;-80
2023/03/10 02:13:24;;;;;;;15.52;6.00;;;6.00;99.00;;;;;;6164214;23;20052;-80
2023/03/10 02:15:52;;;;;;;14.73;6.30;;;6.10;99.30;;;;;;6165611;23;20028;-80
2023/03/10 02:18:21;;;;;;;14.63;5.32;;;6.00;99.50;;;;;;6164919;23;20047;-80
2023/03/10 02:21:07;;;;;;;13.90;6.30;;;6.00;99.70;;;;;;6164488;23;20103;-80
2023/03/10 02:23:41;;;;;;;12.88;6.57;;;6.10;99.90;;;;;;6165320;23;20875;-80
2023/03/10 02:26:40;;;;;;;16.02;5.95;;;6.00;99.90;;;;;;6189367;23;20111;-80
2023/03/10 02:29:15;;;;;;;11.18;5.70;;;6.00;99.90;;;;;;6166133;23;20061;-80
2023/03/10 02:31:44;;;;;;;12.38;5.63;;;5.90;99.90;;;;;;6165451;23;20525;-80
2023/03/10 02:34:12;;;;;;;15.60;6.10;;;5.20;99.70;;;;;;6164416;23;20346;-80
2023/03/10 02:36:40;;;;;;;13.07;4.95;;;5.90;99.90;;;;;;6165344;23;20037;-80
2023/03/10 02:39:09;;;;;;;11.88;5.95;;;5.90;99.90;;;;;;6165721;23;20080;-80
2023/03/10 02:41:38;;;;;;;14.55;6.55;;;5.90;99.90;;;;;;6166269;23;20021;-81
2023/03/10 02:44:13;;;;;;;15.45;6.55;;;5.90;99.90;;;;;;6166454;23;20731;-81
2023/03/10 02:46:41;;;;;;;11.95;4.97;;;5.90;99.90;;;;;;6190486;23;20024;-81
2023/03/10 02:49:09;;;;;;;17.48;6.63;;;5.80;99.90;;;;;;6165199;23;20020;-81
2023/03/10 02:51:43;;;;;;;15.50;6.70;;;5.80;99.90;;;;;;6165776;23;20021;-81
2023/03/10 02:54:14;;;;;;;16.00;6.97;;;5.20;99.90;;;;;;6165876;23;20021;-81
2023/03/10 02:56:41;;;;;;;15.93;6.15;;;5.80;99.90;;;;;;6166118;23;20039;-81
2023/03/10 02:59:11;;;;;;;14.40;6.90;;;5.80;99.90;;;;;;6168145;23;20025;-81
2023/03/10 03:01:44;;;;;;;12.75;5.40;;;5.70;99.90;;;;;;6170509;23;20031;-80
2023/03/10 03:04:11;;;;;;;16.92;6.40;;;5.70;99.90;;;;;;6174094;23;20021;-80
2023/03/10 03:06:39;;;;;;;14.43;5.88;;;5.70;99.90;;;;;;6169192;23;20017;-80
2023/03/10 03:09:07;;;;;;;18.00;7.68;;;5.70;99.90;;;;;;6193629;23;20020;-80
2023/03/10 03:11:35;;;;;;;15.07;6.75;;;5.50;99.90;;;;;;6169309;23;20047;-80
2023/03/10 03:14:04;;;;;;;14.77;6.25;;;5.60;99.90;;;;;;6169266;23;20357;-80
2023/03/10 03:16:31;;;;;;;18.40;7.00;;;5.60;99.90;;;;;;6169649;23;20020;-80
2023/03/10 03:19:02;;;;;;;18.25;6.07;;;5.60;99.90;;;;;;6171852;23;20040;-80
2023/03/10 03:21:30;;;;;;;15.30;6.90;;;5.50;99.90;;;;;;6171831;23;20071;-80
2023/03/10 03:23:58;;;;;;;12.25;5.72;;;5.50;99.90;;;;;;6171692;23;20025;-80
2023/03/10 03:26:26;;;;;;;17.63;5.80;;;5.50;99.90;;;;;;6170513;23;20017;-80
2023/03/10 03:29:03;;;;;;;14.18;6.53;;;5.40;99.90;;;;;;6171619;23;20471;-80
2023/03/10 03:31:33;;;;;;;15.52;6.22;;;5.50;99.90;;;;;;6169453;23;20017;-80
2023/03/10 03:34:07;;;;;;;12.07;5.78;;;5.50;99.90;;;;;;6171391;23;20388;-80
2023/03/10 03:36:34;;;;;;;15.50;6.60;;;5.50;99.90;;;;;;6171002;23;20027;-80
2023/03/10 03:39:05;;;;;;;17.20;6.93;;;5.50;99.90;;;;;;6197707;23;20020;-80
2023/03/10 03:41:33;;;;;;;15.05;6.88;;;5.50;99.90;;;;;;6146983;23;20021;-80
2023/03/10 03:44:01;;;;;;;15.30;7.00;;;5.30;99.90;;;;;;6170536;23;20036;-80
2023/03/10 03:46:30;;;;;;;17.05;7.28;;;5.30;99.90;;;;;;6198266;23;20103;-80
2023/03/10 03:48:58;;;;;;;16.63;7.47;;;5.40;99.90;;;;;;6171604;23;20017;-80
2023/03/10 03:51:26;;;;;;;17.55;6.65;;;5.40;99.90;;;;;;6174036;23;20044;-80
2023/03/10 03:53:54;;;;;;;15.60;6.03;;;5.40;99.90;;;;;;6200004;23;20102;-80
2023/03/10 03:56:22;;;;;;;12.30;5.93;;;4.50;99.90;;;;;;6173755;23;20024;-80
2023/03/10 03:58:49;;;;;;;14.93;8.05;;;5.40;99.90;;;;;;6176746;23;20027;-81
2023/03/10 04:01:18;;;;;;;15.75;7.82;;;5.40;99.90;;;;;;6173315;23;20472;-80
2023/03/10 04:03:49;;;;;;;17.77;8.27;;;5.40;99.90;;;;;;6176910;23;20017;-80
2023/03/10 04:06:17;;;;;;;18.55;8.70;;;5.40;99.90;;;;;;6177037;23;20048;-80
2023/03/10 04:08:48;;;;;;;18.73;8.63;;;5.30;99.90;;;;;;6176364;23;20017;-80
2023/03/10 04:11:16;;;;;;;19.73;7.95;;;5.40;99.90;;;;;;6175557;23;20020;-80
2023/03/10 04:13:45;;;;;;;20.58;9.77;;;5.40;99.90;;;;;;6174955;23;20021;-80
2023/03/10 04:16:13;;;;;;;17.08;7.68;;;4.90;99.90;;;;;;6198349;23;20052;-80
2023/03/10 04:18:42;;;;;;;18.27;8.68;;;5.40;99.90;;;;;;6173213;23;20040;-80
2023/03/10 04:21:11;;;;;;;20.30;7.90;;;5.30;99.90;;;;;;6174003;23;20411;-80
2023/03/10 04:23:41;;;;;;;13.55;6.95;;;5.40;99.90;;;;;;6174666;23;20021;-80
2023/03/10 04:26:11;;;;;;;16.92;7.18;;;5.70;99.90;;;;;;6173930;23;20067;-80
2023/03/10 04:28:39;;;;;;;17.08;6.88;;;5.30;99.90;;;;;;6175430;23;20025;-80
2023/03/10 04:31:14;;;;;;;36.92;11.80;;;5.40;99.90;;;;;;6175323;23;20020;-81
2023/03/10 04:33:44;;;;;;;16.15;7.05;;;5.30;99.90;;;;;;6175187;23;20035;-80
2023/03/10 04:36:12;;;;;;;18.05;7.00;;;5.30;99.90;;;;;;6176461;23;20088;-80
2023/03/10 04:38:41;;;;;;;17.73;7.07;;;5.30;99.90;;;;;;6176026;23;20028;-80
2023/03/10 04:41:08;;;;;;;13.90;6.45;;;5.20;99.90;;;;;;6177021;23;20021;-80
2023/03/10 04:43:39;;;;;;;14.40;6.68;;;5.30;99.90;;;;;;6177349;23;20017;-80
2023/03/10 04:46:10;;;;;;;13.00;6.32;;;5.20;99.90;;;;;;6208104;23;20026;-82
2023/03/10 04:48:38;;;;;;;11.15;5.28;;;5.30;99.90;;;;;;6186664;23;20021;-81
2023/03/10 04:51:08;;;;;;;13.88;6.05;;;5.30;99.90;;;;;;6184693;23;20047;-80
2023/03/10 04:53:41;;;;;;;16.17;6.25;;;5.30;99.90;;;;;;6188952;23;20005;-80
2023/03/10 04:56:10;;;;;;;15.65;7.28;;;5.30;99.90;;;;;;6188057;23;20020;-80
2023/03/10 04:58:38;;;;;;;15.55;7.20;;;4.50;99.90;;;;;;6185115;23;20016;-81
2023/03/10 05:01:11;;;;;;;15.32;7.13;;;5.20;99.90;;;;;;6213012;23;20070;-81
2023/03/10 05:03:44;;;;;;;15.07;6.80;;;5.20;99.90;;;;;;6187424;23;20028;-80
2023/03/10 05:06:14;;;;;;;14.50;6.68;;;5.00;99.90;;;;;;6182064;23;20017;-80
2023/03/10 05:08:46;;;;;;;12.73;6.25;;;5.10;99.90;;;;;;6206893;23;20080;-80
2023/03/10 05:11:14;;;;;;;13.65;6.38;;;5.10;99.90;;;;;;6179352;23;20044;-81
2023/03/10 05:13:41;;;;;;;17.90;6.70;;;5.10;99.90;;;;;;6177755;23;20021;-81
2023/03/10 05:16:20;;;;;;;15.68;6.32;;;5.10;99.90;;;;;;6183104;23;20055;-81
2023/03/10 05:18:49;;;;;;;14.65;7.20;;;5.10;99.90;;;;;;6183853;23;20032;-80
2023/03/10 05:21:22;;;;;;;;;;;3.80;99.90;;;;;;6156736;23;20039;-80
2023/03/10 05:23:51;;;;;;;20.67;7.10;;;5.00;99.90;;;;;;6184139;23;19919;-81
2023/03/10 05:26:20;;;;;;;24.40;8.23;;;5.20;99.90;;;;;;6185353;23;20016;-81
2023/03/10 05:28:48;;;;;;;33.55;12.13;;;5.10;99.90;;;;;;6180642;23;20016;-81
2023/03/10 05:31:24;;;;;;;32.63;11.75;;;5.00;99.90;;;;;;6181050;23;20051;-81
2023/03/10 05:33:58;;;;;;;34.00;13.07;;;4.90;99.90;;;;;;6213744;23;20030;-80
2023/03/10 05:46:15;;;;;;;28.77;11.77;;;5.20;99.90;;;;;;6224592;23;20051;-79
2023/03/10 05:48:48;;;;;;;34.00;13.10;;;5.10;99.90;;;;;;6180893;23;20044;-80
2023/03/10 05:51:16;;;;;;;36.08;14.25;;;5.10;99.90;;;;;;6202994;23;20036;-80
2023/03/10 05:53:45;;;;;;;30.00;13.18;;;4.20;99.90;;;;;;6177989;23;20024;-80
2023/03/10 05:56:19;;;;;;;28.88;11.88;;;5.20;99.90;;;;;;6204864;23;20032;-80
2023/03/10 05:58:50;;;;;;;30.77;12.33;;;5.20;99.90;;;;;;6177320;23;20012;-80
2023/03/10 06:01:21;;;;;;;30.45;12.98;;;5.20;99.90;;;;;;6175458;23;20027;-80
2023/03/10 06:03:48;;;;;;;31.27;12.68;;;5.30;99.90;;;;;;6172422;23;20024;-79
2023/03/10 06:06:16;;;;;;;32.58;13.57;;;5.30;99.90;;;;;;6172831;23;20327;-80
2023/03/10 06:08:43;;;;;;;35.95;14.02;;;4.70;99.90;;;;;;6200822;23;20071;-81
2023/03/10 06:11:11;;;;;;;32.67;13.93;;;5.40;99.90;;;;;;6175091;23;20017;-80
2023/03/10 06:13:38;;;;;;;27.55;12.52;;;5.50;99.90;;;;;;6173838;23;20019;-80
2023/03/10 06:16:06;;;;;;;32.40;15.38;;;5.70;99.90;;;;;;6169692;23;20016;-80
2023/03/10 06:18:34;;;;;;;45.35;15.38;;;4.90;99.90;;;;;;6168173;23;20024;-80
2023/03/10 06:21:10;;;;;;;42.00;16.30;;;5.00;99.90;;;;;;6191354;23;20024;-80
2023/03/10 06:23:38;;;;;;;40.10;17.48;;;5.80;99.90;;;;;;6167611;23;20024;-80
2023/03/10 06:26:10;;;;;;;42.60;17.38;;;5.90;99.90;;;;;;6165615;23;20131;-80
2023/03/10 06:28:39;;;;;;;43.58;17.90;;;6.00;99.90;;;;;;6190428;23;20021;-80
2023/03/10 06:31:18;;;;;;;37.38;16.63;;;6.10;99.90;;;;;;6165044;23;20027;-79
2023/03/10 06:33:46;;;;;;;32.45;15.23;;;6.30;99.90;;;;;;6195402;23;20025;-80
2023/03/10 06:36:15;;;;;;;35.03;14.32;;;6.30;99.90;;;;;;6169442;23;20024;-80
2023/03/10 06:38:43;;;;;;;34.10;14.32;;;6.30;99.90;;;;;;6191154;23;20111;-80
2023/03/10 06:41:11;;;;;;;31.30;13.05;;;6.40;99.90;;;;;;6189852;23;20024;-80
2023/03/10 06:43:39;;;;;;;31.95;13.60;;;6.40;99.90;;;;;;6164778;23;20063;-80
2023/03/10 06:46:09;;;;;;;36.83;14.38;;;6.00;99.90;;;;;;6192282;23;20032;-80
2023/03/10 06:48:37;;;;;;;49.63;17.17;;;6.60;99.90;;;;;;6177007;23;20024;-80
2023/03/10 06:51:14;;;;;;;41.85;16.10;;;6.80;99.90;;;;;;6171697;23;20099;-80
2023/03/10 06:53:41;;;;;;;40.10;15.77;;;6.90;99.90;;;;;;6168067;23;20020;-80
2023/03/10 06:56:21;;;;;;;39.85;15.93;;;6.90;99.90;;;;;;6165949;23;20020;-80
2023/03/10 06:58:48;;;;;;;39.22;15.75;;;7.20;99.90;;;;;;6167995;23;20020;-80
2023/03/10 07:01:24;;;;;;;44.78;18.27;;;7.20;99.90;;;;;;6187705;23;20562;-80
2023/03/10 07:03:52;;;;;;;44.70;18.17;;;7.40;99.90;;;;;;6163594;23;20039;-80
2023/03/10 07:06:21;;;;;;;41.22;15.65;;;8.10;99.90;;;;;;6159264;23;20016;-80
2023/03/10 07:08:49;;;;;;;25.67;9.85;;;7.70;99.90;;;;;;6169249;23;20017;-80
2023/03/10 07:11:17;;;;;;;16.67;8.38;;;7.90;99.90;;;;;;6168808;23;20044;-80
2023/03/10 07:13:44;;;;;;;14.18;7.70;;;8.00;99.90;;;;;;6174768;23;20056;-80
2023/03/10 07:16:12;;;;;;;11.98;6.10;;;8.00;99.90;;;;;;6170579;23;20024;-80
2023/03/10 07:18:41;;;;;;;13.95;6.57;;;8.40;99.90;;;;;;6166173;23;20447;-80
2023/03/10 07:21:10;;;;;;;15.43;7.15;;;8.60;99.90;;;;;;6160164;23;20401;-80
2023/03/10 07:23:40;;;;;;;17.98;6.45;;;8.60;99.90;;;;;;6195043;23;20020;-80
2023/03/10 07:26:13;;;;;;;12.85;6.68;;;8.90;99.90;;;;;;6168995;23;20028;-79
2023/03/10 07:31:46;;;;;;;13.33;6.13;;;9.30;99.90;;;;;;6126215;23;20255;31
2023/03/10 07:34:21;;;;;;;11.52;6.00;;;9.40;99.90;;;;;;6149098;23;20026;-80
2023/03/10 07:36:48;;;;;;;11.07;6.07;;;9.40;99.90;;;;;;6183942;22;20033;-80
2023/03/10 07:39:16;;;;;;;12.57;7.35;;;9.60;99.90;;;;;;6159261;23;20072;-80
2023/03/10 07:41:45;;;;;;;11.13;6.32;;;9.90;99.90;;;;;;6143918;23;20028;-81
2023/03/10 07:44:12;;;;;;;11.27;4.75;;;10.00;99.90;;;;;;6171423;23;20408;-80
2023/03/10 07:46:39;;;;;;;6.57;3.13;;;10.10;99.90;;;;;;6127231;23;20056;-80
2023/03/10 07:49:11;;;;;;;8.60;3.97;;;10.20;99.90;;;;;;6132562;23;20025;-80
2023/03/10 07:51:38;;;;;;;8.32;3.55;;;10.30;99.90;;;;;;6156940;23;20081;-80
2023/03/10 07:54:05;;;;;;;9.10;3.90;;;10.50;99.90;;;;;;6158449;23;20326;-80
2023/03/10 07:56:32;;;;;;;11.35;3.83;;;10.50;99.90;;;;;;6159975;23;20076;-80
2023/03/10 07:58:59;;;;;;;5.10;2.60;;;10.40;99.90;;;;;;6127766;23;20036;-80
2023/03/10 08:01:33;;;;;;;10.05;4.15;;;10.00;99.90;;;;;;6183152;23;20028;-80
2023/03/10 08:04:07;;;;;;;5.35;2.67;;;10.20;99.90;;;;;;6183670;23;20044;-80
2023/03/10 08:06:35;;;;;;;10.35;4.00;;;10.20;99.90;;;;;;6172475;23;20021;-80
2023/03/10 08:09:04;;;;;;;7.85;4.10;;;10.20;99.90;;;;;;6145905;23;20025;-80
2023/03/10 08:11:31;;;;;;;8.85;3.88;;;10.50;99.90;;;;;;6138757;23;20032;-80
2023/03/10 08:13:59;;;;;;;9.48;3.38;;;10.60;99.90;;;;;;6153905;23;20032;-80
2023/03/10 08:16:27;;;;;;;10.20;3.10;;;10.70;99.90;;;;;;6133499;23;20028;-80
2023/03/10 08:18:54;;;;;;;6.13;3.13;;;10.80;99.90;;;;;;6123965;23;20099;-81
2023/03/10 08:21:25;;;;;;;6.28;4.18;;;10.60;99.90;;;;;;6186275;23;20449;-81
2023/03/10 08:23:52;;;;;;;10.95;4.28;;;10.70;99.90;;;;;;6185551;23;20566;-81
2023/03/10 08:26:22;;;;;;;5.80;3.50;;;10.60;99.90;;;;;;6183846;23;20055;-81
2023/03/10 08:28:52;;;;;;;14.77;4.22;;;10.70;99.90;;;;;;6209281;23;20449;-81
2023/03/10 08:31:20;;;;;;;12.45;3.92;;;10.30;99.90;;;;;;6160086;23;20108;-81
2023/03/10 08:33:48;;;;;;;9.80;4.45;;;10.80;99.90;;;;;;6203094;23;20016;-81
2023/03/10 08:36:19;;;;;;;6.03;3.50;;;10.60;99.90;;;;;;6179367;23;20028;-81
2023/03/10 08:38:48;;;;;;;9.18;3.03;;;10.70;99.90;;;;;;6209473;23;20020;-81
2023/03/10 08:41:20;;;;;;;9.07;3.50;;;11.00;99.90;;;;;;6185980;23;20035;-81
2023/03/10 08:43:49;;;;;;;11.83;3.17;;;9.90;99.90;;;;;;6190783;23;20004;-81
2023/03/10 08:46:19;;;;;;;7.63;3.10;;;11.10;99.90;;;;;;6162486;23;20020;-81
2023/03/10 08:48:47;;;;;;;9.13;3.67;;;11.20;99.90;;;;;;6213904;23;20051;-81
2023/03/10 08:51:15;;;;;;;5.50;3.17;;;11.40;99.90;;;;;;6168609;23;20044;-81
2023/03/10 08:53:47;;;;;;;5.43;3.00;;;11.50;99.90;;;;;;6179181;23;20029;-81
2023/03/10 08:56:21;;;;;;;37.33;14.07;;;11.40;99.90;;;;;;6187303;23;20025;-81
2023/03/10 08:58:48;;;;;;;8.13;3.83;;;11.20;99.90;;;;;;6185137;23;20028;-81
2023/03/10 09:01:23;;;;;;;7.72;3.90;;;11.10;99.90;;;;;;6161413;23;20025;-81
2023/03/10 09:03:52;;;;;;;8.20;3.63;;;11.10;99.90;;;;;;6142599;23;20441;-82
2023/03/10 09:06:20;;;;;;;9.18;3.85;;;11.30;99.90;;;;;;6129640;23;20026;-81
2023/03/10 09:08:51;;;;;;;7.03;3.90;;;11.30;99.90;;;;;;6152813;23;20025;-81
2023/03/10 09:11:24;;;;;;;8.88;3.72;;;11.40;99.90;;;;;;6149649;23;20083;-81
2023/03/10 09:13:52;;;;;;;7.78;3.85;;;11.60;99.90;;;;;;6170549;23;20029;-81
2023/03/10 09:16:22;;;;;;;11.13;3.85;;;11.30;99.90;;;;;;6142366;23;20028;-80
2023/03/10 09:18:51;;;;;;;10.05;3.80;;;11.20;99.90;;;;;;6183318;23;20017;-80
2023/03/10 09:21:21;;;;;;;8.75;4.30;;;11.00;99.90;;;;;;6162431;23;20028;-80
2023/03/10 09:23:51;;;;;;;8.73;4.13;;;10.90;99.90;;;;;;6166876;23;20487;-80
2023/03/10 09:26:20;;;;;;;10.85;4.15;;;10.90;99.90;;;;;;6169140;23;20546;-80
2023/03/10 09:28:49;;;;;;;12.05;4.60;;;11.10;99.90;;;;;;6170355;23;20024;-80
2023/03/10 09:31:20;;;;;;;10.35;4.82;;;11.50;99.90;;;;;;6173402;23;20164;-80
2023/03/10 09:33:48;;;;;;;7.45;3.05;;;11.90;99.90;;;;;;6188468;23;20035;-79
2023/03/10 09:36:16;;;;;;;5.15;2.70;;;12.00;99.90;;;;;;6178496;23;20088;-79
2023/03/10 09:38:44;;;;;;;6.82;4.45;;;12.20;99.90;;;;;;6179209;23;20131;-79
2023/03/10 09:41:29;;;;;;;6.25;2.30;;;12.10;99.90;;;;;;6184195;23;20185;-80
2023/03/10 09:44:31;;;;;;;7.60;3.35;;;12.10;99.90;;;;;;6152671;23;20028;-80
2023/03/10 09:47:35;;;;;;;8.70;3.92;;;12.10;99.90;;;;;;6183221;23;20474;-80
2023/03/10 09:50:26;;;;;;;9.82;3.88;;;12.20;99.90;;;;;;6165903;23;20500;-80
2023/03/10 09:53:13;;;;;;;9.48;4.15;;;12.30;99.90;;;;;;6143780;23;20021;-80
2023/03/10 09:55:44;;;;;;;7.68;5.30;;;12.30;99.90;;;;;;6145333;23;20083;-80
2023/03/10 09:58:38;;;;;;;8.55;5.22;;;12.40;99.90;;;;;;6150532;23;20025;-80
2023/03/10 10:01:15;;;;;;;4.10;1.90;;;12.50;99.90;;;;;;6124124;23;20025;-80
2023/03/10 10:03:55;;;;;;;5.03;1.75;;;11.90;99.90;;;;;;6130048;23;20035;-78
2023/03/10 10:06:31;;;;;;;5.65;2.30;;;12.60;99.90;;;;;;6153994;23;20028;-81
2023/03/10 10:09:17;;;;;;;6.07;2.35;;;12.80;99.90;;;;;;6152062;23;20048;-81
2023/03/10 10:11:47;;;;;;;6.68;2.58;;;12.80;99.90;;;;;;6130462;23;20056;-80
2023/03/10 10:14:18;;;;;;;4.63;2.10;;;13.00;99.90;;;;;;6148379;23;20025;-80
2023/03/10 10:16:59;;;;;;;5.47;2.10;;;13.40;99.90;;;;;;6149528;23;20044;-80
2023/03/10 10:19:27;;;;;;;2.95;1.60;;;13.50;99.90;;;;;;6154913;23;20274;-80
2023/03/10 10:22:36;;;;;;;4.85;1.85;;;13.40;99.90;;;;;;6147187;23;20107;-80
2023/03/10 10:25:18;;;;;;;4.95;1.77;;;13.40;99.90;;;;;;6088468;23;20065;-80
2023/03/10 10:27:47;;;;;;;3.90;1.75;;;13.40;99.90;;;;;;6089214;23;20254;-80
2023/03/10 10:30:28;;;;;;;4.25;2.45;;;13.50;99.90;;;;;;6069168;23;20469;-80
2023/03/10 10:33:02;;;;;;;3.58;1.73;;;13.70;99.90;;;;;;6051482;23;20091;-81
2023/03/10 10:35:41;;;;;;;4.07;1.67;;;14.20;99.90;;;;;;6054340;23;20055;-80
2023/03/10 10:38:08;;;;;;;4.05;1.60;;;14.10;99.90;;;;;;6034790;23;20483;-79
2023/03/10 10:40:50;;;;;;;4.55;1.60;;;13.90;99.90;;;;;;6055158;23;20027;-79
2023/03/10 10:43:19;;;;;;;4.50;1.80;;;14.20;99.90;;;;;;6029373;23;20031;-81
2023/03/10 10:46:04;;;;;;;5.75;1.77;;;14.50;99.90;;;;;;6031588;23;20023;-80
2023/03/10 10:49:06;;;;;;;6.10;1.33;;;14.30;99.90;;;;;;6011912;23;20019;-80
2023/03/10 10:51:36;;;;;;;4.43;2.13;;;14.50;99.90;;;;;;6031404;23;20527;-80
2023/03/10 10:54:29;;;;;;;3.05;1.40;;;14.70;99.90;;;;;;6030458;23;20019;-80
2023/03/10 10:56:59;;;;;;;2.30;0.80;;;14.90;98.80;;;;;;6084174;23;20055;-80
2023/03/10 10:59:30;;;;;;;3.60;1.42;;;14.80;97.90;;;;;;6062602;23;20030;-81
2023/03/10 11:02:02;;;;;;;4.88;1.52;;;14.80;96.90;;;;;;6112782;23;20022;-80
2023/03/10 11:04:51;;;;;;;;;;;14.70;95.40;;;;;;6146643;23;20025;-80
2023/03/10 11:07:26;;;;;;;4.45;1.35;;;14.80;95.60;;;;;;6171623;23;19943;-79
2023/03/10 11:09:56;;;;;;;;;;;15.30;95.70;;;;;;6145209;23;20540;-80
2023/03/10 11:12:37;;;;;;;3.38;1.23;;;15.50;95.00;;;;;;6150346;23;19927;-79
2023/03/10 11:15:15;;;;;;;3.45;0.85;;;15.60;93.50;;;;;;6169357;23;20029;-80
2023/03/10 11:17:50;;;;;;;2.60;0.77;;;15.70;93.40;;;;;;6158469;23;20033;-80
2023/03/10 11:20:25;;;;;;;4.47;1.45;;;15.40;93.50;;;;;;6150514;23;20025;-79
2023/03/10 11:23:06;;;;;;;3.83;1.08;;;15.40;92.90;;;;;;6154061;23;20021;-80
2023/03/10 11:25:48;;;;;;;4.25;1.13;;;15.30;92.80;;;;;;6147689;23;20017;-80
2023/03/10 11:29:08;;;;;;;2.75;0.90;;;15.00;93.20;;;;;;6145684;23;20005;-80
2023/03/10 11:32:04;;;;;;;4.35;1.00;;;14.70;93.70;;;;;;6079550;23;20027;-80
2023/03/10 11:34:39;;;;;;;2.03;0.93;;;15.00;94.50;;;;;;6055741;23;20023;-80
2023/03/10 11:37:35;;;;;;;2.67;1.23;;;15.00;95.10;;;;;;6079099;23;20532;-80
2023/03/10 11:40:29;;;;;;;3.53;1.15;;;15.10;94.20;;;;;;6053474;23;20099;-80
2023/03/10 11:43:21;;;;;;;3.63;1.20;;;15.00;93.80;;;;;;6082232;23;20050;-79
2023/03/10 11:45:53;;;;;;;2.75;0.88;;;15.00;93.60;;;;;;6054533;23;20029;-80
2023/03/10 11:48:32;;;;;;;3.45;0.77;;;14.90;93.00;;;;;;6009361;23;20115;-80
2023/03/10 11:51:03;;;;;;;3.05;0.82;;;15.00;93.40;;;;;;6028298;23;20019;-79
2023/03/10 11:53:33;;;;;;;4.82;0.95;;;15.50;92.90;;;;;;6025095;23;20043;-81
2023/03/10 11:56:01;;;;;;;2.83;0.52;;;15.80;92.50;;;;;;6046049;23;20026;-80
2023/03/10 11:58:53;;;;;;;3.90;0.85;;;15.70;92.20;;;;;;6055572;23;20522;-82
2023/03/10 12:01:52;;;;;;;5.35;0.93;;;15.50;92.20;;;;;;5973012;23;20026;-80
2023/03/10 12:04:50;;;;;;;3.38;0.68;;;15.50;92.90;;;;;;6089188;23;20030;-80
2023/03/10 12:07:42;;;;;;;2.72;0.80;;;15.40;92.40;;;;;;6088254;23;20415;-79
2023/03/10 12:10:12;;;;;;;3.35;0.40;;;15.40;91.60;;;;;;6113613;23;20477;-79
2023/03/10 12:12:44;;;;;;;4.28;0.70;;;15.60;91.70;;;;;;6093593;23;20508;-79
2023/03/10 12:15:15;;;;;;;2.10;0.55;;;15.80;91.10;;;;;;6091059;23;20025;-79
2023/03/10 12:17:48;;;;;;;4.75;0.50;;;16.20;91.20;;;;;;6120153;23;20078;-79
2023/03/10 12:20:19;;;;;;;6.32;0.70;;;16.50;90.50;;;;;;6148757;23;20029;-80
2023/03/10 12:22:50;;;;;;;10.10;0.73;;;16.60;89.50;;;;;;6104948;23;20632;-80
2023/03/10 12:25:31;;;;;;;3.40;0.95;;;16.50;90.40;;;;;;6071066;23;20026;-80
2023/03/10 12:28:23;;;;;;;7.85;2.38;;;16.20;90.10;;;;;;6068835;23;20022;-80
2023/03/10 12:30:58;;;;;;;5.28;1.35;;;16.10;90.30;;;;;;6117430;23;20108;-79
2023/03/10 12:33:33;;;;;;;6.68;2.25;;;16.30;90.30;;;;;;6065053;23;20018;-78
2023/03/10 12:36:06;;;;;;;5.40;1.30;;;16.30;90.00;;;;;;6096469;23;20456;-80
2023/03/10 12:38:50;;;;;;;2.25;0.77;;;16.50;90.00;;;;;;6112947;23;20466;-79
2023/03/10 12:41:26;;;;;;;3.90;0.75;;;16.50;89.60;;;;;;6091847;23;20022;-80
2023/03/10 12:44:26;;;;;;;3.83;1.83;;;15.20;90.10;;;;;;6098377;23;20101;-80
2023/03/10 12:47:27;;;;;;;2.78;0.98;;;15.90;91.10;;;;;;6089137;23;20025;-80
2023/03/10 12:50:41;;;;;;;2.90;0.43;;;15.80;91.30;;;;;;6120250;23;20045;-80
2023/03/10 12:53:37;;;;;;;4.47;0.65;;;15.80;91.50;;;;;;6115025;23;20109;-80
2023/03/10 12:56:20;;;;;;;3.22;0.80;;;15.90;91.30;;;;;;6112590;23;20401;-80
2023/03/10 12:59:02;;;;;;;3.50;1.05;;;16.00;91.30;;;;;;6093126;23;20033;-80
2023/03/10 13:01:39;;;;;;;2.40;0.70;;;16.20;91.20;;;;;;6149544;23;20017;-80
2023/03/10 13:04:30;;;;;;;1.67;0.43;;;16.20;91.00;;;;;;6104929;23;20025;-80
2023/03/10 13:07:02;;;;;;;2.05;0.40;;;16.30;90.80;;;;;;6122975;23;20095;-80
2023/03/10 13:09:37;;;;;;;0.47;0.20;;;16.50;90.90;;;;;;6171495;23;20603;-80
2023/03/10 13:12:23;;;;;;;1.30;0.28;;;16.70;90.10;;;;;;6151671;23;20075;-80
2023/03/10 13:14:55;;;;;;;2.28;0.77;;;16.90;89.40;;;;;;6152042;23;20107;-80
2023/03/10 13:17:31;;;;;;;1.77;0.40;;;17.00;89.10;;;;;;6151043;23;20031;-79
2023/03/10 13:20:10;;;;;;;2.33;0.50;;;16.90;89.00;;;;;;6145285;23;20021;-79
2023/03/10 13:22:58;;;;;;;1.73;0.30;;;16.70;87.20;;;;;;6092633;23;20433;-80
2023/03/10 13:25:26;;;;;;;2.20;0.32;;;16.60;87.90;;;;;;6085426;23;20032;-79
2023/03/10 13:27:56;;;;;;;1.13;0.30;;;16.60;87.60;;;;;;6095833;23;20053;-81